sensor_id;sensor_type;location;lat;lon;timestamp;P1;durP1;ratioP1;P2;durP2;ratioP2
16403;SDS011;8311;50.158;8.642;2023-06-04T00:00:26;1.23;;;1.08;;
16403;SDS011;8311;50.158;8.642;2023-06-04T00:03:19;1.10;;;0.80;;
16403;SDS011;8311;50.158;8.642;2023-06-04T00:06:13;1.90;;;1.05;;
16403;SDS011;8311;50.158;8.642;2023-06-04T00:09:07;1.60;;;1.05;;
16403;SDS011;8311;50.158;8.642;2023-06-04T00:12:00;1.55;;;0.90;;
16403;SDS011;8311;50.158;8.642;2023-06-04T00:14:56;5.60;;;1.33;;
16403;SDS011;8311;50.158;8.642;2023-06-04T00:17:49;1.65;;;1.10;;
16403;SDS011;8311;50.158;8.642;2023-06-04T00:20:43;1.30;;;1.08;;
16403;SDS011;8311;50.158;8.642;2023-06-04T00:23:36;2.05;;;1.52;;
16403;SDS011;8311;50.158;8.642;2023-06-04T00:26:29;3.03;;;1.70;;
16403;SDS011;8311;50.158;8.642;2023-06-04T00:29:22;5.78;;;1.52;;
16403;SDS011;8311;50.158;8.642;2023-06-04T00:32:16;2.78;;;1.83;;
16403;SDS011;8311;50.158;8.642;2023-06-04T00:35:10;3.28;;;1.65;;
16403;SDS011;8311;50.158;8.642;2023-06-04T00:38:03;3.42;;;1.65;;
16403;SDS011;8311;50.158;8.642;2023-06-04T00:40:56;2.47;;;1.63;;
16403;SDS011;8311;50.158;8.642;2023-06-04T00:43:49;4.07;;;1.70;;
16403;SDS011;8311;50.158;8.642;2023-06-04T00:46:48;4.90;;;2.03;;
16403;SDS011;8311;50.158;8.642;2023-06-04T00:49:42;3.63;;;1.73;;
16403;SDS011;8311;50.158;8.642;2023-06-04T00:52:36;3.40;;;1.85;;
16403;SDS011;8311;50.158;8.642;2023-06-04T00:55:30;3.53;;;1.60;;
16403;SDS011;8311;50.158;8.642;2023-06-04T00:58:24;2.78;;;1.52;;
16403;SDS011;8311;50.158;8.642;2023-06-04T01:01:20;3.80;;;2.03;;
16403;SDS011;8311;50.158;8.642;2023-06-04T01:04:21;1.88;;;1.42;;
16403;SDS011;8311;50.158;8.642;2023-06-04T01:07:19;5.13;;;1.98;;
16403;SDS011;8311;50.158;8.642;2023-06-04T01:10:14;2.75;;;2.00;;
16403;SDS011;8311;50.158;8.642;2023-06-04T01:13:08;2.50;;;1.60;;
16403;SDS011;8311;50.158;8.642;2023-06-04T01:16:02;3.78;;;1.85;;
16403;SDS011;8311;50.158;8.642;2023-06-04T01:18:57;2.38;;;1.40;;
16403;SDS011;8311;50.158;8.642;2023-06-04T01:21:54;4.38;;;1.60;;
16403;SDS011;8311;50.158;8.642;2023-06-04T01:24:56;2.45;;;1.55;;
16403;SDS011;8311;50.158;8.642;2023-06-04T01:27:54;2.88;;;1.85;;
16403;SDS011;8311;50.158;8.642;2023-06-04T01:30:49;4.10;;;1.80;;
16403;SDS011;8311;50.158;8.642;2023-06-04T01:33:43;2.85;;;1.40;;
16403;SDS011;8311;50.158;8.642;2023-06-04T01:36:37;3.85;;;1.80;;
16403;SDS011;8311;50.158;8.642;2023-06-04T01:39:30;4.45;;;2.00;;
16403;SDS011;8311;50.158;8.642;2023-06-04T01:42:24;4.22;;;1.88;;
16403;SDS011;8311;50.158;8.642;2023-06-04T01:45:18;3.50;;;1.58;;
16403;SDS011;8311;50.158;8.642;2023-06-04T01:48:14;4.90;;;1.85;;
16403;SDS011;8311;50.158;8.642;2023-06-04T01:51:08;3.35;;;1.90;;
16403;SDS011;8311;50.158;8.642;2023-06-04T01:54:02;3.67;;;1.77;;
16403;SDS011;8311;50.158;8.642;2023-06-04T01:56:55;3.15;;;1.67;;
16403;SDS011;8311;50.158;8.642;2023-06-04T01:59:49;3.20;;;1.70;;
16403;SDS011;8311;50.158;8.642;2023-06-04T02:02:43;4.03;;;1.95;;
16403;SDS011;8311;50.158;8.642;2023-06-04T02:05:40;3.10;;;1.60;;
16403;SDS011;8311;50.158;8.642;2023-06-04T02:08:36;3.25;;;1.70;;
16403;SDS011;8311;50.158;8.642;2023-06-04T02:11:30;1.95;;;1.48;;
16403;SDS011;8311;50.158;8.642;2023-06-04T02:14:23;2.88;;;1.42;;
16403;SDS011;8311;50.158;8.642;2023-06-04T02:17:17;4.75;;;1.50;;
16403;SDS011;8311;50.158;8.642;2023-06-04T02:20:10;3.80;;;1.80;;
16403;SDS011;8311;50.158;8.642;2023-06-04T02:23:04;3.28;;;1.55;;
16403;SDS011;8311;50.158;8.642;2023-06-04T02:25:57;4.22;;;1.90;;
16403;SDS011;8311;50.158;8.642;2023-06-04T02:28:50;3.13;;;1.50;;
16403;SDS011;8311;50.158;8.642;2023-06-04T02:31:43;3.65;;;1.80;;
16403;SDS011;8311;50.158;8.642;2023-06-04T02:34:37;3.08;;;1.65;;
16403;SDS011;8311;50.158;8.642;2023-06-04T02:37:31;3.10;;;1.70;;
16403;SDS011;8311;50.158;8.642;2023-06-04T02:40:24;2.72;;;1.67;;
16403;SDS011;8311;50.158;8.642;2023-06-04T02:43:17;6.65;;;2.25;;
16403;SDS011;8311;50.158;8.642;2023-06-04T02:46:10;1.83;;;1.30;;
16403;SDS011;8311;50.158;8.642;2023-06-04T02:49:03;2.67;;;1.60;;
16403;SDS011;8311;50.158;8.642;2023-06-04T02:51:58;2.60;;;1.60;;
16403;SDS011;8311;50.158;8.642;2023-06-04T02:54:52;3.60;;;1.60;;
16403;SDS011;8311;50.158;8.642;2023-06-04T02:57:45;3.72;;;1.90;;
16403;SDS011;8311;50.158;8.642;2023-06-04T03:00:38;3.05;;;1.65;;
16403;SDS011;8311;50.158;8.642;2023-06-04T03:03:32;3.35;;;1.70;;
16403;SDS011;8311;50.158;8.642;2023-06-04T03:06:26;5.60;;;1.90;;
16403;SDS011;8311;50.158;8.642;2023-06-04T03:09:22;4.95;;;1.95;;
16403;SDS011;8311;50.158;8.642;2023-06-04T03:12:15;2.47;;;1.55;;
16403;SDS011;8311;50.158;8.642;2023-06-04T03:15:09;2.92;;;1.75;;
16403;SDS011;8311;50.158;8.642;2023-06-04T03:18:03;3.53;;;1.60;;
16403;SDS011;8311;50.158;8.642;2023-06-04T03:20:56;4.38;;;1.85;;
16403;SDS011;8311;50.158;8.642;2023-06-04T03:23:49;4.80;;;2.20;;
16403;SDS011;8311;50.158;8.642;2023-06-04T03:26:43;4.20;;;2.33;;
16403;SDS011;8311;50.158;8.642;2023-06-04T03:29:36;4.35;;;2.22;;
16403;SDS011;8311;50.158;8.642;2023-06-04T03:32:30;5.82;;;2.40;;
16403;SDS011;8311;50.158;8.642;2023-06-04T03:35:24;3.95;;;2.30;;
16403;SDS011;8311;50.158;8.642;2023-06-04T03:38:17;4.82;;;2.10;;
16403;SDS011;8311;50.158;8.642;2023-06-04T03:41:09;4.53;;;2.10;;
16403;SDS011;8311;50.158;8.642;2023-06-04T03:44:05;3.92;;;2.35;;
16403;SDS011;8311;50.158;8.642;2023-06-04T03:46:58;6.50;;;2.30;;
16403;SDS011;8311;50.158;8.642;2023-06-04T03:49:51;4.47;;;2.65;;
16403;SDS011;8311;50.158;8.642;2023-06-04T03:52:44;5.25;;;2.45;;
16403;SDS011;8311;50.158;8.642;2023-06-04T03:55:37;2.97;;;2.30;;
16403;SDS011;8311;50.158;8.642;2023-06-04T03:58:31;3.13;;;2.00;;
16403;SDS011;8311;50.158;8.642;2023-06-04T04:01:25;3.95;;;2.20;;
16403;SDS011;8311;50.158;8.642;2023-06-04T04:04:19;6.20;;;2.42;;
16403;SDS011;8311;50.158;8.642;2023-06-04T04:07:12;4.75;;;2.30;;
16403;SDS011;8311;50.158;8.642;2023-06-04T04:10:05;4.03;;;2.10;;
16403;SDS011;8311;50.158;8.642;2023-06-04T04:12:59;4.88;;;2.75;;
16403;SDS011;8311;50.158;8.642;2023-06-04T04:15:52;4.28;;;2.30;;
16403;SDS011;8311;50.158;8.642;2023-06-04T04:18:47;3.97;;;2.15;;
16403;SDS011;8311;50.158;8.642;2023-06-04T04:21:40;4.55;;;1.90;;
16403;SDS011;8311;50.158;8.642;2023-06-04T04:24:33;4.93;;;1.83;;
16403;SDS011;8311;50.158;8.642;2023-06-04T04:27:28;5.63;;;1.98;;
16403;SDS011;8311;50.158;8.642;2023-06-04T04:30:22;3.92;;;2.20;;
16403;SDS011;8311;50.158;8.642;2023-06-04T04:33:16;4.05;;;2.03;;
16403;SDS011;8311;50.158;8.642;2023-06-04T04:36:10;3.92;;;2.30;;
16403;SDS011;8311;50.158;8.642;2023-06-04T04:39:05;5.68;;;2.13;;
16403;SDS011;8311;50.158;8.642;2023-06-04T04:41:58;2.78;;;1.70;;
16403;SDS011;8311;50.158;8.642;2023-06-04T04:44:52;3.28;;;2.00;;
16403;SDS011;8311;50.158;8.642;2023-06-04T04:47:45;3.88;;;1.70;;
16403;SDS011;8311;50.158;8.642;2023-06-04T04:50:38;3.65;;;1.73;;
16403;SDS011;8311;50.158;8.642;2023-06-04T04:53:32;3.90;;;1.92;;
16403;SDS011;8311;50.158;8.642;2023-06-04T04:56:26;2.97;;;1.77;;
16403;SDS011;8311;50.158;8.642;2023-06-04T04:59:19;2.30;;;1.40;;
16403;SDS011;8311;50.158;8.642;2023-06-04T05:02:12;3.47;;;1.70;;
16403;SDS011;8311;50.158;8.642;2023-06-04T05:05:05;3.80;;;1.60;;
16403;SDS011;8311;50.158;8.642;2023-06-04T05:07:59;2.85;;;1.70;;
16403;SDS011;8311;50.158;8.642;2023-06-04T05:10:53;2.65;;;1.70;;
16403;SDS011;8311;50.158;8.642;2023-06-04T05:13:46;3.67;;;1.77;;
16403;SDS011;8311;50.158;8.642;2023-06-04T05:16:39;5.20;;;2.05;;
16403;SDS011;8311;50.158;8.642;2023-06-04T05:19:34;3.45;;;1.77;;
16403;SDS011;8311;50.158;8.642;2023-06-04T05:22:28;3.05;;;1.52;;
16403;SDS011;8311;50.158;8.642;2023-06-04T05:25:23;2.45;;;1.63;;
16403;SDS011;8311;50.158;8.642;2023-06-04T05:28:19;2.95;;;1.58;;
16403;SDS011;8311;50.158;8.642;2023-06-04T05:31:16;5.57;;;1.70;;
16403;SDS011;8311;50.158;8.642;2023-06-04T05:34:09;4.35;;;1.70;;
16403;SDS011;8311;50.158;8.642;2023-06-04T05:37:07;2.80;;;1.55;;
16403;SDS011;8311;50.158;8.642;2023-06-04T05:40:03;2.83;;;1.60;;
16403;SDS011;8311;50.158;8.642;2023-06-04T05:42:58;2.15;;;1.35;;
16403;SDS011;8311;50.158;8.642;2023-06-04T05:45:52;4.40;;;1.35;;
16403;SDS011;8311;50.158;8.642;2023-06-04T05:48:46;3.25;;;1.85;;
16403;SDS011;8311;50.158;8.642;2023-06-04T05:51:39;3.53;;;2.15;;
16403;SDS011;8311;50.158;8.642;2023-06-04T05:54:32;2.90;;;1.60;;
16403;SDS011;8311;50.158;8.642;2023-06-04T05:57:25;3.33;;;1.70;;
16403;SDS011;8311;50.158;8.642;2023-06-04T06:00:19;4.82;;;1.90;;
16403;SDS011;8311;50.158;8.642;2023-06-04T06:03:14;3.22;;;1.60;;
16403;SDS011;8311;50.158;8.642;2023-06-04T06:06:08;3.97;;;1.85;;
16403;SDS011;8311;50.158;8.642;2023-06-04T06:09:02;5.00;;;2.17;;
16403;SDS011;8311;50.158;8.642;2023-06-04T06:11:56;4.75;;;1.55;;
16403;SDS011;8311;50.158;8.642;2023-06-04T06:14:49;2.47;;;1.50;;
16403;SDS011;8311;50.158;8.642;2023-06-04T06:17:42;5.35;;;2.25;;
16403;SDS011;8311;50.158;8.642;2023-06-04T06:20:36;2.45;;;1.42;;
16403;SDS011;8311;50.158;8.642;2023-06-04T06:23:30;4.47;;;1.70;;
16403;SDS011;8311;50.158;8.642;2023-06-04T06:26:23;4.25;;;1.60;;
16403;SDS011;8311;50.158;8.642;2023-06-04T06:29:17;3.10;;;1.45;;
16403;SDS011;8311;50.158;8.642;2023-06-04T06:32:10;2.60;;;1.60;;
16403;SDS011;8311;50.158;8.642;2023-06-04T06:35:04;2.97;;;1.60;;
16403;SDS011;8311;50.158;8.642;2023-06-04T06:38:01;2.97;;;1.48;;
16403;SDS011;8311;50.158;8.642;2023-06-04T06:40:54;3.03;;;1.60;;
16403;SDS011;8311;50.158;8.642;2023-06-04T06:43:47;2.25;;;1.23;;
16403;SDS011;8311;50.158;8.642;2023-06-04T06:46:40;2.92;;;1.60;;
16403;SDS011;8311;50.158;8.642;2023-06-04T06:49:33;8.45;;;1.63;;
16403;SDS011;8311;50.158;8.642;2023-06-04T06:52:27;2.92;;;1.63;;
16403;SDS011;8311;50.158;8.642;2023-06-04T06:55:26;3.38;;;1.75;;
16403;SDS011;8311;50.158;8.642;2023-06-04T06:58:19;3.65;;;1.70;;
16403;SDS011;8311;50.158;8.642;2023-06-04T07:01:14;3.05;;;1.40;;
16403;SDS011;8311;50.158;8.642;2023-06-04T07:04:08;2.40;;;1.50;;
16403;SDS011;8311;50.158;8.642;2023-06-04T07:07:01;4.28;;;1.73;;
16403;SDS011;8311;50.158;8.642;2023-06-04T07:09:55;3.22;;;1.58;;
16403;SDS011;8311;50.158;8.642;2023-06-04T07:12:49;3.38;;;1.95;;
16403;SDS011;8311;50.158;8.642;2023-06-04T07:15:43;2.60;;;1.60;;
16403;SDS011;8311;50.158;8.642;2023-06-04T07:18:36;2.22;;;1.40;;
16403;SDS011;8311;50.158;8.642;2023-06-04T07:21:29;3.80;;;2.00;;
16403;SDS011;8311;50.158;8.642;2023-06-04T07:24:22;4.10;;;1.73;;
16403;SDS011;8311;50.158;8.642;2023-06-04T07:27:15;2.55;;;1.40;;
16403;SDS011;8311;50.158;8.642;2023-06-04T07:30:10;3.72;;;1.50;;
16403;SDS011;8311;50.158;8.642;2023-06-04T07:33:03;3.08;;;1.60;;
16403;SDS011;8311;50.158;8.642;2023-06-04T07:35:57;2.58;;;1.67;;
16403;SDS011;8311;50.158;8.642;2023-06-04T07:38:51;7.65;;;1.85;;
16403;SDS011;8311;50.158;8.642;2023-06-04T07:41:44;2.80;;;1.70;;
16403;SDS011;8311;50.158;8.642;2023-06-04T07:44:37;4.38;;;1.77;;
16403;SDS011;8311;50.158;8.642;2023-06-04T07:47:31;4.07;;;1.63;;
16403;SDS011;8311;50.158;8.642;2023-06-04T07:50:24;2.53;;;1.40;;
16403;SDS011;8311;50.158;8.642;2023-06-04T07:53:18;3.00;;;1.63;;
16403;SDS011;8311;50.158;8.642;2023-06-04T07:56:11;3.33;;;1.40;;
16403;SDS011;8311;50.158;8.642;2023-06-04T07:59:04;3.70;;;1.60;;
16403;SDS011;8311;50.158;8.642;2023-06-04T08:01:57;2.83;;;1.42;;
16403;SDS011;8311;50.158;8.642;2023-06-04T08:04:52;3.92;;;1.50;;
16403;SDS011;8311;50.158;8.642;2023-06-04T08:07:45;5.85;;;1.90;;
16403;SDS011;8311;50.158;8.642;2023-06-04T08:10:39;3.30;;;1.42;;
16403;SDS011;8311;50.158;8.642;2023-06-04T08:13:32;2.78;;;1.55;;
16403;SDS011;8311;50.158;8.642;2023-06-04T08:16:25;2.97;;;1.30;;
16403;SDS011;8311;50.158;8.642;2023-06-04T08:19:18;2.08;;;1.50;;
16403;SDS011;8311;50.158;8.642;2023-06-04T08:22:13;3.13;;;1.73;;
16403;SDS011;8311;50.158;8.642;2023-06-04T08:25:06;2.55;;;1.30;;
16403;SDS011;8311;50.158;8.642;2023-06-04T08:28:00;5.22;;;1.77;;
16403;SDS011;8311;50.158;8.642;2023-06-04T08:30:54;5.45;;;1.67;;
16403;SDS011;8311;50.158;8.642;2023-06-04T08:33:47;2.15;;;1.45;;
16403;SDS011;8311;50.158;8.642;2023-06-04T08:36:41;2.83;;;1.40;;
16403;SDS011;8311;50.158;8.642;2023-06-04T08:39:35;3.80;;;1.70;;
16403;SDS011;8311;50.158;8.642;2023-06-04T08:42:29;4.90;;;1.60;;
16403;SDS011;8311;50.158;8.642;2023-06-04T08:45:23;3.28;;;1.30;;
16403;SDS011;8311;50.158;8.642;2023-06-04T08:48:18;3.75;;;1.77;;
16403;SDS011;8311;50.158;8.642;2023-06-04T08:51:15;2.47;;;1.42;;
16403;SDS011;8311;50.158;8.642;2023-06-04T08:54:09;4.70;;;2.03;;
16403;SDS011;8311;50.158;8.642;2023-06-04T08:57:04;3.72;;;1.70;;
16403;SDS011;8311;50.158;8.642;2023-06-04T08:59:58;3.83;;;1.58;;
16403;SDS011;8311;50.158;8.642;2023-06-04T09:02:52;3.13;;;1.38;;
16403;SDS011;8311;50.158;8.642;2023-06-04T09:05:46;3.75;;;1.23;;
16403;SDS011;8311;50.158;8.642;2023-06-04T09:08:41;3.15;;;1.60;;
16403;SDS011;8311;50.158;8.642;2023-06-04T09:11:50;2.97;;;1.40;;
16403;SDS011;8311;50.158;8.642;2023-06-04T09:14:46;3.03;;;1.48;;
16403;SDS011;8311;50.158;8.642;2023-06-04T09:17:41;5.60;;;1.60;;
16403;SDS011;8311;50.158;8.642;2023-06-04T09:20:34;4.30;;;1.45;;
16403;SDS011;8311;50.158;8.642;2023-06-04T09:23:27;2.65;;;1.50;;
16403;SDS011;8311;50.158;8.642;2023-06-04T09:26:22;2.35;;;1.42;;
16403;SDS011;8311;50.158;8.642;2023-06-04T09:29:17;4.05;;;1.58;;
16403;SDS011;8311;50.158;8.642;2023-06-04T09:32:13;3.42;;;1.50;;
16403;SDS011;8311;50.158;8.642;2023-06-04T09:35:09;4.90;;;1.50;;
16403;SDS011;8311;50.158;8.642;2023-06-04T09:38:04;2.15;;;1.40;;
16403;SDS011;8311;50.158;8.642;2023-06-04T09:40:57;4.22;;;1.50;;
16403;SDS011;8311;50.158;8.642;2023-06-04T09:43:58;2.65;;;1.50;;
16403;SDS011;8311;50.158;8.642;2023-06-04T09:46:55;3.45;;;1.70;;
16403;SDS011;8311;50.158;8.642;2023-06-04T09:49:51;3.35;;;1.60;;
16403;SDS011;8311;50.158;8.642;2023-06-04T09:52:44;2.75;;;1.63;;
16403;SDS011;8311;50.158;8.642;2023-06-04T09:55:37;3.67;;;1.70;;
16403;SDS011;8311;50.158;8.642;2023-06-04T09:58:30;3.13;;;1.60;;
16403;SDS011;8311;50.158;8.642;2023-06-04T10:01:26;2.47;;;1.52;;
16403;SDS011;8311;50.158;8.642;2023-06-04T10:04:21;4.55;;;1.77;;
16403;SDS011;8311;50.158;8.642;2023-06-04T10:07:17;2.72;;;1.42;;
16403;SDS011;8311;50.158;8.642;2023-06-04T10:10:11;1.83;;;1.33;;
16403;SDS011;8311;50.158;8.642;2023-06-04T10:13:09;3.90;;;1.45;;
16403;SDS011;8311;50.158;8.642;2023-06-04T10:16:07;5.13;;;1.90;;
16403;SDS011;8311;50.158;8.642;2023-06-04T10:19:19;11.55;;;2.45;;
16403;SDS011;8311;50.158;8.642;2023-06-04T10:22:14;4.07;;;2.08;;
16403;SDS011;8311;50.158;8.642;2023-06-04T10:25:09;6.88;;;2.05;;
16403;SDS011;8311;50.158;8.642;2023-06-04T10:28:02;5.10;;;1.67;;
16403;SDS011;8311;50.158;8.642;2023-06-04T10:30:56;9.57;;;2.20;;
16403;SDS011;8311;50.158;8.642;2023-06-04T10:33:53;7.40;;;1.80;;
16403;SDS011;8311;50.158;8.642;2023-06-04T10:36:46;4.78;;;1.90;;
16403;SDS011;8311;50.158;8.642;2023-06-04T10:39:39;5.00;;;1.63;;
16403;SDS011;8311;50.158;8.642;2023-06-04T10:42:45;3.08;;;1.73;;
16403;SDS011;8311;50.158;8.642;2023-06-04T10:45:38;4.68;;;1.88;;
16403;SDS011;8311;50.158;8.642;2023-06-04T10:48:32;4.28;;;1.77;;
16403;SDS011;8311;50.158;8.642;2023-06-04T10:51:29;3.28;;;1.60;;
16403;SDS011;8311;50.158;8.642;2023-06-04T10:54:24;5.70;;;1.55;;
16403;SDS011;8311;50.158;8.642;2023-06-04T10:57:18;3.47;;;1.63;;
16403;SDS011;8311;50.158;8.642;2023-06-04T11:00:13;3.75;;;1.63;;
16403;SDS011;8311;50.158;8.642;2023-06-04T11:03:08;7.13;;;1.88;;
16403;SDS011;8311;50.158;8.642;2023-06-04T11:06:14;4.30;;;1.80;;
16403;SDS011;8311;50.158;8.642;2023-06-04T11:09:08;5.50;;;1.75;;
16403;SDS011;8311;50.158;8.642;2023-06-04T11:12:07;3.65;;;1.58;;
16403;SDS011;8311;50.158;8.642;2023-06-04T11:15:00;3.15;;;1.60;;
16403;SDS011;8311;50.158;8.642;2023-06-04T11:17:55;3.40;;;1.45;;
16403;SDS011;8311;50.158;8.642;2023-06-04T11:20:50;5.00;;;1.60;;
16403;SDS011;8311;50.158;8.642;2023-06-04T11:23:54;2.47;;;1.35;;
16403;SDS011;8311;50.158;8.642;2023-06-04T11:26:47;1.88;;;1.20;;
16403;SDS011;8311;50.158;8.642;2023-06-04T11:30:00;2.75;;;1.33;;
16403;SDS011;8311;50.158;8.642;2023-06-04T11:33:03;2.45;;;1.40;;
16403;SDS011;8311;50.158;8.642;2023-06-04T11:35:57;3.33;;;1.63;;
16403;SDS011;8311;50.158;8.642;2023-06-04T11:38:54;2.72;;;1.15;;
16403;SDS011;8311;50.158;8.642;2023-06-04T11:41:50;2.70;;;1.38;;
16403;SDS011;8311;50.158;8.642;2023-06-04T11:44:44;2.60;;;1.48;;
16403;SDS011;8311;50.158;8.642;2023-06-04T11:47:41;3.97;;;1.48;;
16403;SDS011;8311;50.158;8.642;2023-06-04T11:50:38;2.78;;;1.58;;
16403;SDS011;8311;50.158;8.642;2023-06-04T11:53:31;2.58;;;1.48;;
16403;SDS011;8311;50.158;8.642;2023-06-04T11:56:24;1.58;;;1.08;;
16403;SDS011;8311;50.158;8.642;2023-06-04T11:59:18;1.73;;;1.33;;
16403;SDS011;8311;50.158;8.642;2023-06-04T12:02:12;2.70;;;1.48;;
16403;SDS011;8311;50.158;8.642;2023-06-04T12:05:12;2.95;;;1.50;;
16403;SDS011;8311;50.158;8.642;2023-06-04T12:08:07;2.88;;;1.58;;
16403;SDS011;8311;50.158;8.642;2023-06-04T12:11:01;3.00;;;1.40;;
16403;SDS011;8311;50.158;8.642;2023-06-04T12:13:55;3.95;;;1.73;;
16403;SDS011;8311;50.158;8.642;2023-06-04T12:16:56;2.08;;;1.20;;
16403;SDS011;8311;50.158;8.642;2023-06-04T12:19:50;4.70;;;1.50;;
16403;SDS011;8311;50.158;8.642;2023-06-04T12:22:44;2.53;;;1.55;;
16403;SDS011;8311;50.158;8.642;2023-06-04T12:25:40;4.47;;;1.45;;
16403;SDS011;8311;50.158;8.642;2023-06-04T12:28:33;2.30;;;1.40;;
16403;SDS011;8311;50.158;8.642;2023-06-04T12:31:27;2.13;;;1.35;;
16403;SDS011;8311;50.158;8.642;2023-06-04T12:34:23;3.35;;;1.70;;
16403;SDS011;8311;50.158;8.642;2023-06-04T12:37:16;2.15;;;1.52;;
16403;SDS011;8311;50.158;8.642;2023-06-04T12:40:10;2.03;;;1.20;;
16403;SDS011;8311;50.158;8.642;2023-06-04T12:43:06;3.15;;;1.08;;
16403;SDS011;8311;50.158;8.642;2023-06-04T12:46:00;3.17;;;1.30;;
16403;SDS011;8311;50.158;8.642;2023-06-04T12:48:53;1.30;;;1.17;;
16403;SDS011;8311;50.158;8.642;2023-06-04T12:51:48;2.35;;;1.40;;
16403;SDS011;8311;50.158;8.642;2023-06-04T12:54:41;2.03;;;1.20;;
16403;SDS011;8311;50.158;8.642;2023-06-04T12:57:34;2.00;;;1.33;;
16403;SDS011;8311;50.158;8.642;2023-06-04T13:00:29;4.18;;;1.15;;
16403;SDS011;8311;50.158;8.642;2023-06-04T13:03:22;2.28;;;1.40;;
16403;SDS011;8311;50.158;8.642;2023-06-04T13:06:15;1.95;;;1.10;;
16403;SDS011;8311;50.158;8.642;2023-06-04T13:09:08;1.60;;;1.00;;
16403;SDS011;8311;50.158;8.642;2023-06-04T13:12:01;2.83;;;1.55;;
16403;SDS011;8311;50.158;8.642;2023-06-04T13:14:57;1.63;;;1.00;;
16403;SDS011;8311;50.158;8.642;2023-06-04T13:17:52;2.00;;;1.45;;
16403;SDS011;8311;50.158;8.642;2023-06-04T13:20:46;1.60;;;1.20;;
16403;SDS011;8311;50.158;8.642;2023-06-04T13:23:40;2.25;;;1.13;;
16403;SDS011;8311;50.158;8.642;2023-06-04T13:26:42;3.42;;;1.20;;
16403;SDS011;8311;50.158;8.642;2023-06-04T13:29:35;3.22;;;1.27;;
16403;SDS011;8311;50.158;8.642;2023-06-04T13:32:27;2.67;;;1.30;;
16403;SDS011;8311;50.158;8.642;2023-06-04T13:35:22;3.40;;;1.45;;
16403;SDS011;8311;50.158;8.642;2023-06-04T13:38:15;2.38;;;1.20;;
16403;SDS011;8311;50.158;8.642;2023-06-04T13:41:09;4.55;;;1.42;;
16403;SDS011;8311;50.158;8.642;2023-06-04T13:44:02;1.65;;;1.25;;
16403;SDS011;8311;50.158;8.642;2023-06-04T13:46:57;2.35;;;1.67;;
16403;SDS011;8311;50.158;8.642;2023-06-04T13:49:51;2.00;;;1.48;;
16403;SDS011;8311;50.158;8.642;2023-06-04T13:52:46;2.60;;;1.27;;
16403;SDS011;8311;50.158;8.642;2023-06-04T13:55:39;3.53;;;1.40;;
16403;SDS011;8311;50.158;8.642;2023-06-04T13:58:32;1.70;;;1.10;;
16403;SDS011;8311;50.158;8.642;2023-06-04T14:01:25;2.55;;;1.50;;
16403;SDS011;8311;50.158;8.642;2023-06-04T14:04:19;3.55;;;1.45;;
16403;SDS011;8311;50.158;8.642;2023-06-04T14:07:12;2.33;;;1.10;;
16403;SDS011;8311;50.158;8.642;2023-06-04T14:10:07;2.95;;;1.60;;
16403;SDS011;8311;50.158;8.642;2023-06-04T14:13:02;2.60;;;1.40;;
16403;SDS011;8311;50.158;8.642;2023-06-04T14:15:54;2.08;;;1.30;;
16403;SDS011;8311;50.158;8.642;2023-06-04T14:18:48;3.25;;;1.33;;
16403;SDS011;8311;50.158;8.642;2023-06-04T14:21:41;1.98;;;1.40;;
16403;SDS011;8311;50.158;8.642;2023-06-04T14:24:35;1.92;;;1.15;;
16403;SDS011;8311;50.158;8.642;2023-06-04T14:27:30;3.28;;;1.20;;
16403;SDS011;8311;50.158;8.642;2023-06-04T14:30:23;3.10;;;1.38;;
16403;SDS011;8311;50.158;8.642;2023-06-04T14:33:17;2.55;;;1.40;;
16403;SDS011;8311;50.158;8.642;2023-06-04T14:36:09;3.42;;;1.35;;
16403;SDS011;8311;50.158;8.642;2023-06-04T14:39:03;2.60;;;1.42;;
16403;SDS011;8311;50.158;8.642;2023-06-04T14:41:56;2.38;;;1.70;;
16403;SDS011;8311;50.158;8.642;2023-06-04T14:44:50;2.30;;;1.30;;
16403;SDS011;8311;50.158;8.642;2023-06-04T14:47:44;2.33;;;1.33;;
16403;SDS011;8311;50.158;8.642;2023-06-04T14:50:37;2.83;;;1.25;;
16403;SDS011;8311;50.158;8.642;2023-06-04T14:53:31;3.15;;;1.35;;
16403;SDS011;8311;50.158;8.642;2023-06-04T14:56:24;2.00;;;1.40;;
16403;SDS011;8311;50.158;8.642;2023-06-04T14:59:18;2.88;;;1.50;;
16403;SDS011;8311;50.158;8.642;2023-06-04T15:02:12;2.58;;;1.63;;
16403;SDS011;8311;50.158;8.642;2023-06-04T15:05:11;3.78;;;2.00;;
16403;SDS011;8311;50.158;8.642;2023-06-04T15:08:04;2.13;;;1.40;;
16403;SDS011;8311;50.158;8.642;2023-06-04T15:10:57;2.33;;;1.70;;
16403;SDS011;8311;50.158;8.642;2023-06-04T15:13:49;2.75;;;1.80;;
16403;SDS011;8311;50.158;8.642;2023-06-04T15:16:42;2.08;;;1.40;;
16403;SDS011;8311;50.158;8.642;2023-06-04T15:19:36;2.13;;;1.40;;
16403;SDS011;8311;50.158;8.642;2023-06-04T15:22:29;3.03;;;1.70;;
16403;SDS011;8311;50.158;8.642;2023-06-04T15:25:23;3.15;;;1.70;;
16403;SDS011;8311;50.158;8.642;2023-06-04T15:28:20;3.00;;;1.75;;
16403;SDS011;8311;50.158;8.642;2023-06-04T15:31:13;4.18;;;1.80;;
16403;SDS011;8311;50.158;8.642;2023-06-04T15:34:07;2.20;;;1.42;;
16403;SDS011;8311;50.158;8.642;2023-06-04T15:37:01;2.33;;;1.70;;
16403;SDS011;8311;50.158;8.642;2023-06-04T15:39:54;4.50;;;2.22;;
16403;SDS011;8311;50.158;8.642;2023-06-04T15:42:49;3.17;;;2.08;;
16403;SDS011;8311;50.158;8.642;2023-06-04T15:45:42;2.92;;;2.08;;
16403;SDS011;8311;50.158;8.642;2023-06-04T15:48:37;2.33;;;1.60;;
16403;SDS011;8311;50.158;8.642;2023-06-04T15:51:30;5.00;;;1.98;;
16403;SDS011;8311;50.158;8.642;2023-06-04T15:54:24;4.50;;;2.70;;
16403;SDS011;8311;50.158;8.642;2023-06-04T15:57:36;3.35;;;2.28;;
16403;SDS011;8311;50.158;8.642;2023-06-04T16:00:28;5.18;;;2.90;;
16403;SDS011;8311;50.158;8.642;2023-06-04T16:03:22;6.68;;;2.78;;
16403;SDS011;8311;50.158;8.642;2023-06-04T16:06:16;4.68;;;2.80;;
16403;SDS011;8311;50.158;8.642;2023-06-04T16:09:08;4.32;;;2.55;;
16403;SDS011;8311;50.158;8.642;2023-06-04T16:12:03;4.72;;;3.13;;
16403;SDS011;8311;50.158;8.642;2023-06-04T16:14:56;8.95;;;3.88;;
16403;SDS011;8311;50.158;8.642;2023-06-04T16:17:50;6.53;;;3.30;;
16403;SDS011;8311;50.158;8.642;2023-06-04T16:20:42;6.15;;;3.65;;
16403;SDS011;8311;50.158;8.642;2023-06-04T16:23:35;5.28;;;3.03;;
16403;SDS011;8311;50.158;8.642;2023-06-04T16:26:29;5.10;;;3.25;;
16403;SDS011;8311;50.158;8.642;2023-06-04T16:29:23;6.90;;;3.50;;
16403;SDS011;8311;50.158;8.642;2023-06-04T16:32:16;5.07;;;3.47;;
16403;SDS011;8311;50.158;8.642;2023-06-04T16:35:10;6.47;;;3.47;;
16403;SDS011;8311;50.158;8.642;2023-06-04T16:38:04;5.60;;;3.60;;
16403;SDS011;8311;50.158;8.642;2023-06-04T16:40:58;4.50;;;3.00;;
16403;SDS011;8311;50.158;8.642;2023-06-04T16:43:50;4.78;;;2.88;;
16403;SDS011;8311;50.158;8.642;2023-06-04T16:46:45;5.43;;;3.20;;
16403;SDS011;8311;50.158;8.642;2023-06-04T16:49:39;5.93;;;3.05;;
16403;SDS011;8311;50.158;8.642;2023-06-04T16:52:32;6.22;;;2.97;;
16403;SDS011;8311;50.158;8.642;2023-06-04T16:55:29;5.40;;;3.00;;
16403;SDS011;8311;50.158;8.642;2023-06-04T16:58:24;6.22;;;2.78;;
16403;SDS011;8311;50.158;8.642;2023-06-04T17:01:17;4.78;;;3.10;;
16403;SDS011;8311;50.158;8.642;2023-06-04T17:04:11;8.68;;;3.33;;
16403;SDS011;8311;50.158;8.642;2023-06-04T17:07:04;6.05;;;2.92;;
16403;SDS011;8311;50.158;8.642;2023-06-04T17:09:57;4.28;;;2.65;;
16403;SDS011;8311;50.158;8.642;2023-06-04T17:12:50;4.25;;;2.72;;
16403;SDS011;8311;50.158;8.642;2023-06-04T17:15:44;5.00;;;3.28;;
16403;SDS011;8311;50.158;8.642;2023-06-04T17:18:37;3.75;;;2.40;;
16403;SDS011;8311;50.158;8.642;2023-06-04T17:21:32;5.72;;;2.05;;
16403;SDS011;8311;50.158;8.642;2023-06-04T17:24:26;7.85;;;2.67;;
16403;SDS011;8311;50.158;8.642;2023-06-04T17:27:20;4.47;;;2.78;;
16403;SDS011;8311;50.158;8.642;2023-06-04T17:30:15;5.43;;;2.08;;
16403;SDS011;8311;50.158;8.642;2023-06-04T17:33:08;4.10;;;2.08;;
16403;SDS011;8311;50.158;8.642;2023-06-04T17:36:02;3.70;;;2.00;;
16403;SDS011;8311;50.158;8.642;2023-06-04T17:38:58;4.43;;;2.40;;
16403;SDS011;8311;50.158;8.642;2023-06-04T17:41:52;3.70;;;2.05;;
16403;SDS011;8311;50.158;8.642;2023-06-04T17:44:45;3.95;;;2.03;;